sensor_id;sensor_type;location;lat;lon;timestamp;P1;durP1;ratioP1;P2;durP2;ratioP2
57593;SDS011;43423;46.510;6.686;2023-06-24T00:02:10;9.15;;;4.85;;
57593;SDS011;43423;46.510;6.686;2023-06-24T00:04:36;8.75;;;4.68;;
57593;SDS011;43423;46.510;6.686;2023-06-24T00:07:01;9.48;;;4.80;;
57593;SDS011;43423;46.510;6.686;2023-06-24T00:09:28;7.97;;;4.55;;
57593;SDS011;43423;46.510;6.686;2023-06-24T00:11:55;13.15;;;4.85;;
57593;SDS011;43423;46.510;6.686;2023-06-24T00:14:21;9.07;;;5.25;;
57593;SDS011;43423;46.510;6.686;2023-06-24T00:16:48;7.10;;;4.70;;
57593;SDS011;43423;46.510;6.686;2023-06-24T00:19:18;9.13;;;5.10;;
57593;SDS011;43423;46.510;6.686;2023-06-24T00:21:44;8.77;;;5.03;;
57593;SDS011;43423;46.510;6.686;2023-06-24T00:24:10;9.25;;;4.63;;
57593;SDS011;43423;46.510;6.686;2023-06-24T00:26:36;9.10;;;5.10;;
57593;SDS011;43423;46.510;6.686;2023-06-24T00:29:01;9.30;;;5.05;;
57593;SDS011;43423;46.510;6.686;2023-06-24T00:31:27;9.50;;;4.95;;
57593;SDS011;43423;46.510;6.686;2023-06-24T00:33:53;8.00;;;5.10;;
57593;SDS011;43423;46.510;6.686;2023-06-24T00:36:18;8.43;;;4.53;;
57593;SDS011;43423;46.510;6.686;2023-06-24T00:38:44;10.27;;;4.60;;
57593;SDS011;43423;46.510;6.686;2023-06-24T00:41:10;10.32;;;4.82;;
57593;SDS011;43423;46.510;6.686;2023-06-24T00:43:35;12.77;;;5.05;;
57593;SDS011;43423;46.510;6.686;2023-06-24T00:46:01;9.73;;;5.25;;
57593;SDS011;43423;46.510;6.686;2023-06-24T00:48:28;7.88;;;4.63;;
57593;SDS011;43423;46.510;6.686;2023-06-24T00:50:53;8.80;;;5.10;;
57593;SDS011;43423;46.510;6.686;2023-06-24T00:53:19;9.93;;;5.03;;
57593;SDS011;43423;46.510;6.686;2023-06-24T00:55:45;8.68;;;4.88;;
57593;SDS011;43423;46.510;6.686;2023-06-24T00:58:12;10.38;;;4.97;;
57593;SDS011;43423;46.510;6.686;2023-06-24T01:00:44;7.13;;;4.72;;
57593;SDS011;43423;46.510;6.686;2023-06-24T01:03:12;11.85;;;5.95;;
57593;SDS011;43423;46.510;6.686;2023-06-24T01:05:38;8.52;;;5.18;;
57593;SDS011;43423;46.510;6.686;2023-06-24T01:08:06;9.57;;;4.97;;
57593;SDS011;43423;46.510;6.686;2023-06-24T01:10:31;8.55;;;4.93;;
57593;SDS011;43423;46.510;6.686;2023-06-24T01:12:57;8.27;;;5.20;;
57593;SDS011;43423;46.510;6.686;2023-06-24T01:15:23;10.35;;;4.57;;
57593;SDS011;43423;46.510;6.686;2023-06-24T01:20:54;11.65;;;5.07;;
57593;SDS011;43423;46.510;6.686;2023-06-24T01:23:33;8.05;;;4.82;;
57593;SDS011;43423;46.510;6.686;2023-06-24T01:40:14;8.70;;;4.40;;
57593;SDS011;43423;46.510;6.686;2023-06-24T01:42:51;7.75;;;4.90;;
57593;SDS011;43423;46.510;6.686;2023-06-24T01:45:26;7.63;;;4.60;;
57593;SDS011;43423;46.510;6.686;2023-06-24T01:48:00;9.63;;;4.95;;
57593;SDS011;43423;46.510;6.686;2023-06-24T01:50:31;9.40;;;4.85;;
57593;SDS011;43423;46.510;6.686;2023-06-24T01:52:58;7.72;;;4.35;;
57593;SDS011;43423;46.510;6.686;2023-06-24T01:55:29;7.65;;;4.75;;
57593;SDS011;43423;46.510;6.686;2023-06-24T01:57:57;8.00;;;4.65;;
57593;SDS011;43423;46.510;6.686;2023-06-24T02:00:25;6.63;;;4.45;;
57593;SDS011;43423;46.510;6.686;2023-06-24T02:02:51;7.80;;;4.43;;
57593;SDS011;43423;46.510;6.686;2023-06-24T02:05:18;11.10;;;5.53;;
57593;SDS011;43423;46.510;6.686;2023-06-24T02:07:46;11.45;;;5.10;;
57593;SDS011;43423;46.510;6.686;2023-06-24T02:10:14;9.05;;;4.72;;
57593;SDS011;43423;46.510;6.686;2023-06-24T02:12:41;8.00;;;4.35;;
57593;SDS011;43423;46.510;6.686;2023-06-24T02:15:09;8.88;;;4.30;;
57593;SDS011;43423;46.510;6.686;2023-06-24T02:17:35;7.68;;;5.00;;
57593;SDS011;43423;46.510;6.686;2023-06-24T02:20:03;9.60;;;4.68;;
57593;SDS011;43423;46.510;6.686;2023-06-24T02:22:33;9.35;;;5.30;;
57593;SDS011;43423;46.510;6.686;2023-06-24T02:25:00;9.85;;;5.15;;
57593;SDS011;43423;46.510;6.686;2023-06-24T02:27:27;9.07;;;4.57;;
57593;SDS011;43423;46.510;6.686;2023-06-24T02:29:54;9.75;;;4.80;;
57593;SDS011;43423;46.510;6.686;2023-06-24T02:32:20;9.93;;;4.75;;
57593;SDS011;43423;46.510;6.686;2023-06-24T02:34:46;7.47;;;4.70;;
57593;SDS011;43423;46.510;6.686;2023-06-24T02:37:11;11.32;;;4.57;;
57593;SDS011;43423;46.510;6.686;2023-06-24T02:39:37;26.17;;;6.63;;
57593;SDS011;43423;46.510;6.686;2023-06-24T02:42:09;9.90;;;5.10;;
57593;SDS011;43423;46.510;6.686;2023-06-24T02:44:40;8.32;;;5.07;;
57593;SDS011;43423;46.510;6.686;2023-06-24T02:47:07;7.82;;;4.80;;
57593;SDS011;43423;46.510;6.686;2023-06-24T02:49:36;10.68;;;4.97;;
57593;SDS011;43423;46.510;6.686;2023-06-24T02:52:03;7.05;;;4.55;;
57593;SDS011;43423;46.510;6.686;2023-06-24T02:54:30;8.35;;;5.03;;
57593;SDS011;43423;46.510;6.686;2023-06-24T02:56:56;9.43;;;4.78;;
57593;SDS011;43423;46.510;6.686;2023-06-24T02:59:24;9.30;;;5.10;;
57593;SDS011;43423;46.510;6.686;2023-06-24T03:01:51;6.97;;;4.90;;
57593;SDS011;43423;46.510;6.686;2023-06-24T03:04:17;11.32;;;6.30;;
57593;SDS011;43423;46.510;6.686;2023-06-24T03:06:45;8.68;;;5.10;;
57593;SDS011;43423;46.510;6.686;2023-06-24T03:09:11;9.40;;;5.07;;
57593;SDS011;43423;46.510;6.686;2023-06-24T03:11:44;8.18;;;4.63;;
57593;SDS011;43423;46.510;6.686;2023-06-24T03:14:10;9.02;;;4.82;;
57593;SDS011;43423;46.510;6.686;2023-06-24T03:16:36;10.00;;;5.10;;
57593;SDS011;43423;46.510;6.686;2023-06-24T03:19:04;9.55;;;5.25;;
57593;SDS011;43423;46.510;6.686;2023-06-24T03:21:30;8.07;;;4.32;;
57593;SDS011;43423;46.510;6.686;2023-06-24T03:23:56;11.00;;;4.70;;
57593;SDS011;43423;46.510;6.686;2023-06-24T03:26:24;8.57;;;4.80;;
57593;SDS011;43423;46.510;6.686;2023-06-24T03:28:56;9.45;;;4.82;;
57593;SDS011;43423;46.510;6.686;2023-06-24T03:31:21;10.73;;;4.93;;
57593;SDS011;43423;46.510;6.686;2023-06-24T03:33:48;10.73;;;5.10;;
57593;SDS011;43423;46.510;6.686;2023-06-24T03:36:14;8.80;;;4.70;;
57593;SDS011;43423;46.510;6.686;2023-06-24T03:38:40;8.63;;;5.10;;
57593;SDS011;43423;46.510;6.686;2023-06-24T03:41:06;7.95;;;4.95;;
57593;SDS011;43423;46.510;6.686;2023-06-24T03:43:32;9.93;;;5.10;;
57593;SDS011;43423;46.510;6.686;2023-06-24T03:45:57;9.05;;;5.22;;
57593;SDS011;43423;46.510;6.686;2023-06-24T03:48:23;10.55;;;5.53;;
57593;SDS011;43423;46.510;6.686;2023-06-24T03:50:48;9.85;;;5.78;;
57593;SDS011;43423;46.510;6.686;2023-06-24T03:53:14;7.55;;;4.82;;
57593;SDS011;43423;46.510;6.686;2023-06-24T03:55:39;8.27;;;5.10;;
57593;SDS011;43423;46.510;6.686;2023-06-24T03:58:05;11.40;;;5.63;;
57593;SDS011;43423;46.510;6.686;2023-06-24T04:00:30;8.73;;;4.22;;
57593;SDS011;43423;46.510;6.686;2023-06-24T04:02:56;11.82;;;5.50;;
57593;SDS011;43423;46.510;6.686;2023-06-24T04:05:21;8.02;;;4.97;;
57593;SDS011;43423;46.510;6.686;2023-06-24T04:07:48;11.35;;;5.55;;
57593;SDS011;43423;46.510;6.686;2023-06-24T04:10:16;10.20;;;5.60;;
57593;SDS011;43423;46.510;6.686;2023-06-24T04:12:42;9.05;;;5.57;;
57593;SDS011;43423;46.510;6.686;2023-06-24T04:15:08;7.93;;;5.30;;
57593;SDS011;43423;46.510;6.686;2023-06-24T04:17:33;8.80;;;4.65;;
57593;SDS011;43423;46.510;6.686;2023-06-24T04:19:59;14.52;;;5.13;;
57593;SDS011;43423;46.510;6.686;2023-06-24T04:22:25;12.15;;;5.10;;
57593;SDS011;43423;46.510;6.686;2023-06-24T04:24:51;9.43;;;5.63;;
57593;SDS011;43423;46.510;6.686;2023-06-24T04:27:16;9.02;;;5.55;;
57593;SDS011;43423;46.510;6.686;2023-06-24T04:29:42;9.45;;;5.70;;
57593;SDS011;43423;46.510;6.686;2023-06-24T04:32:07;9.25;;;5.05;;
57593;SDS011;43423;46.510;6.686;2023-06-24T04:34:33;9.63;;;5.35;;
57593;SDS011;43423;46.510;6.686;2023-06-24T04:36:59;10.57;;;5.30;;
57593;SDS011;43423;46.510;6.686;2023-06-24T04:39:24;9.27;;;5.63;;
57593;SDS011;43423;46.510;6.686;2023-06-24T04:41:50;10.52;;;5.63;;
57593;SDS011;43423;46.510;6.686;2023-06-24T04:44:16;9.65;;;5.70;;
57593;SDS011;43423;46.510;6.686;2023-06-24T04:46:41;11.43;;;6.00;;
57593;SDS011;43423;46.510;6.686;2023-06-24T04:49:07;12.60;;;6.57;;
57593;SDS011;43423;46.510;6.686;2023-06-24T04:51:33;10.65;;;5.57;;
57593;SDS011;43423;46.510;6.686;2023-06-24T04:53:58;10.75;;;5.68;;
57593;SDS011;43423;46.510;6.686;2023-06-24T04:56:24;12.50;;;5.85;;
57593;SDS011;43423;46.510;6.686;2023-06-24T04:58:51;9.82;;;6.57;;
57593;SDS011;43423;46.510;6.686;2023-06-24T05:01:17;11.23;;;5.43;;
57593;SDS011;43423;46.510;6.686;2023-06-24T05:03:42;9.70;;;5.72;;
57593;SDS011;43423;46.510;6.686;2023-06-24T05:06:08;13.27;;;6.38;;
57593;SDS011;43423;46.510;6.686;2023-06-24T05:08:33;10.60;;;5.85;;
57593;SDS011;43423;46.510;6.686;2023-06-24T05:10:59;9.73;;;5.68;;
57593;SDS011;43423;46.510;6.686;2023-06-24T05:13:26;11.07;;;6.57;;
57593;SDS011;43423;46.510;6.686;2023-06-24T05:15:52;11.45;;;6.53;;
57593;SDS011;43423;46.510;6.686;2023-06-24T05:18:18;9.45;;;6.20;;
57593;SDS011;43423;46.510;6.686;2023-06-24T05:20:44;11.90;;;6.53;;
57593;SDS011;43423;46.510;6.686;2023-06-24T05:23:09;12.35;;;6.32;;
57593;SDS011;43423;46.510;6.686;2023-06-24T05:25:35;12.82;;;6.50;;
57593;SDS011;43423;46.510;6.686;2023-06-24T05:28:00;11.82;;;6.70;;
57593;SDS011;43423;46.510;6.686;2023-06-24T05:30:26;10.52;;;6.53;;
57593;SDS011;43423;46.510;6.686;2023-06-24T05:32:51;12.73;;;6.72;;
57593;SDS011;43423;46.510;6.686;2023-06-24T05:35:17;12.55;;;6.88;;
57593;SDS011;43423;46.510;6.686;2023-06-24T05:37:42;10.80;;;6.72;;
57593;SDS011;43423;46.510;6.686;2023-06-24T05:40:08;11.13;;;6.40;;
57593;SDS011;43423;46.510;6.686;2023-06-24T05:42:34;13.85;;;6.65;;
57593;SDS011;43423;46.510;6.686;2023-06-24T05:45:00;12.60;;;6.50;;
57593;SDS011;43423;46.510;6.686;2023-06-24T05:47:26;16.25;;;6.03;;
57593;SDS011;43423;46.510;6.686;2023-06-24T05:49:51;11.73;;;6.50;;
57593;SDS011;43423;46.510;6.686;2023-06-24T05:52:17;14.48;;;7.13;;
57593;SDS011;43423;46.510;6.686;2023-06-24T05:54:42;12.35;;;6.60;;
57593;SDS011;43423;46.510;6.686;2023-06-24T05:57:08;12.82;;;6.35;;
57593;SDS011;43423;46.510;6.686;2023-06-24T05:59:35;13.50;;;6.68;;
57593;SDS011;43423;46.510;6.686;2023-06-24T06:02:01;13.85;;;7.07;;
57593;SDS011;43423;46.510;6.686;2023-06-24T06:04:29;13.13;;;6.88;;
57593;SDS011;43423;46.510;6.686;2023-06-24T06:06:55;12.43;;;6.68;;
57593;SDS011;43423;46.510;6.686;2023-06-24T06:09:21;13.15;;;6.95;;
57593;SDS011;43423;46.510;6.686;2023-06-24T06:11:47;14.85;;;7.07;;
57593;SDS011;43423;46.510;6.686;2023-06-24T06:14:13;14.88;;;7.35;;
57593;SDS011;43423;46.510;6.686;2023-06-24T06:16:39;12.80;;;7.55;;
57593;SDS011;43423;46.510;6.686;2023-06-24T06:19:05;17.35;;;7.32;;
57593;SDS011;43423;46.510;6.686;2023-06-24T06:21:31;14.10;;;7.30;;
57593;SDS011;43423;46.510;6.686;2023-06-24T06:23:57;14.93;;;7.25;;
57593;SDS011;43423;46.510;6.686;2023-06-24T06:26:22;15.98;;;7.38;;
57593;SDS011;43423;46.510;6.686;2023-06-24T06:28:48;14.07;;;7.10;;
57593;SDS011;43423;46.510;6.686;2023-06-24T06:31:14;17.38;;;7.90;;
57593;SDS011;43423;46.510;6.686;2023-06-24T06:33:39;13.32;;;7.07;;
57593;SDS011;43423;46.510;6.686;2023-06-24T06:36:05;15.63;;;7.90;;
57593;SDS011;43423;46.510;6.686;2023-06-24T06:38:32;12.73;;;7.40;;
57593;SDS011;43423;46.510;6.686;2023-06-24T06:40:58;17.08;;;8.30;;
57593;SDS011;43423;46.510;6.686;2023-06-24T06:43:24;13.93;;;7.63;;
57593;SDS011;43423;46.510;6.686;2023-06-24T06:45:50;14.55;;;8.15;;
57593;SDS011;43423;46.510;6.686;2023-06-24T06:48:15;14.48;;;8.07;;
57593;SDS011;43423;46.510;6.686;2023-06-24T06:50:41;14.10;;;7.30;;
57593;SDS011;43423;46.510;6.686;2023-06-24T06:53:07;13.82;;;7.32;;
57593;SDS011;43423;46.510;6.686;2023-06-24T06:55:32;13.93;;;6.82;;
57593;SDS011;43423;46.510;6.686;2023-06-24T06:57:58;16.77;;;7.40;;
57593;SDS011;43423;46.510;6.686;2023-06-24T07:00:23;11.20;;;6.97;;
57593;SDS011;43423;46.510;6.686;2023-06-24T07:02:49;14.57;;;7.88;;
57593;SDS011;43423;46.510;6.686;2023-06-24T07:05:14;15.05;;;7.40;;
57593;SDS011;43423;46.510;6.686;2023-06-24T07:07:40;15.48;;;7.40;;
57593;SDS011;43423;46.510;6.686;2023-06-24T07:10:06;11.55;;;7.38;;
57593;SDS011;43423;46.510;6.686;2023-06-24T07:12:33;15.65;;;6.60;;
57593;SDS011;43423;46.510;6.686;2023-06-24T07:14:58;14.18;;;7.15;;
57593;SDS011;43423;46.510;6.686;2023-06-24T07:17:24;15.43;;;7.50;;
57593;SDS011;43423;46.510;6.686;2023-06-24T07:19:49;13.77;;;7.65;;
57593;SDS011;43423;46.510;6.686;2023-06-24T07:22:15;16.00;;;7.60;;
57593;SDS011;43423;46.510;6.686;2023-06-24T07:24:41;18.55;;;7.43;;
57593;SDS011;43423;46.510;6.686;2023-06-24T07:27:07;20.27;;;7.07;;
57593;SDS011;43423;46.510;6.686;2023-06-24T07:29:32;15.02;;;7.50;;
57593;SDS011;43423;46.510;6.686;2023-06-24T07:31:58;16.20;;;7.90;;
57593;SDS011;43423;46.510;6.686;2023-06-24T07:34:24;16.98;;;7.13;;
57593;SDS011;43423;46.510;6.686;2023-06-24T07:36:50;13.52;;;7.53;;
57593;SDS011;43423;46.510;6.686;2023-06-24T07:39:16;11.02;;;6.57;;
57593;SDS011;43423;46.510;6.686;2023-06-24T07:41:42;13.38;;;7.68;;
57593;SDS011;43423;46.510;6.686;2023-06-24T07:44:08;13.25;;;6.97;;
57593;SDS011;43423;46.510;6.686;2023-06-24T07:46:34;13.88;;;6.95;;
57593;SDS011;43423;46.510;6.686;2023-06-24T07:49:00;12.50;;;7.72;;
57593;SDS011;43423;46.510;6.686;2023-06-24T07:51:25;16.45;;;7.22;;
57593;SDS011;43423;46.510;6.686;2023-06-24T07:53:52;13.55;;;7.28;;
57593;SDS011;43423;46.510;6.686;2023-06-24T07:56:17;11.63;;;7.53;;
57593;SDS011;43423;46.510;6.686;2023-06-24T07:58:43;14.48;;;7.57;;
57593;SDS011;43423;46.510;6.686;2023-06-24T08:01:08;13.90;;;7.80;;
57593;SDS011;43423;46.510;6.686;2023-06-24T08:03:34;12.15;;;7.47;;
57593;SDS011;43423;46.510;6.686;2023-06-24T08:06:02;13.10;;;6.82;;
57593;SDS011;43423;46.510;6.686;2023-06-24T08:08:27;13.48;;;6.97;;
57593;SDS011;43423;46.510;6.686;2023-06-24T08:10:53;16.45;;;7.28;;
57593;SDS011;43423;46.510;6.686;2023-06-24T08:13:19;16.88;;;7.53;;
57593;SDS011;43423;46.510;6.686;2023-06-24T08:15:44;13.73;;;7.43;;
57593;SDS011;43423;46.510;6.686;2023-06-24T08:18:10;13.57;;;7.63;;
57593;SDS011;43423;46.510;6.686;2023-06-24T08:20:35;14.02;;;7.30;;
57593;SDS011;43423;46.510;6.686;2023-06-24T08:23:01;12.52;;;7.05;;
57593;SDS011;43423;46.510;6.686;2023-06-24T08:25:27;19.95;;;7.38;;
57593;SDS011;43423;46.510;6.686;2023-06-24T08:27:52;20.50;;;7.43;;
57593;SDS011;43423;46.510;6.686;2023-06-24T08:30:18;16.27;;;8.82;;
57593;SDS011;43423;46.510;6.686;2023-06-24T08:32:44;13.85;;;7.93;;
57593;SDS011;43423;46.510;6.686;2023-06-24T08:35:09;10.48;;;6.80;;
57593;SDS011;43423;46.510;6.686;2023-06-24T08:37:38;14.65;;;7.28;;
57593;SDS011;43423;46.510;6.686;2023-06-24T08:40:04;13.45;;;7.00;;
57593;SDS011;43423;46.510;6.686;2023-06-24T08:42:30;13.68;;;7.30;;
57593;SDS011;43423;46.510;6.686;2023-06-24T08:44:56;11.07;;;6.53;;
57593;SDS011;43423;46.510;6.686;2023-06-24T08:47:23;12.98;;;6.00;;
57593;SDS011;43423;46.510;6.686;2023-06-24T08:49:52;11.80;;;7.30;;
57593;SDS011;43423;46.510;6.686;2023-06-24T08:52:21;9.73;;;6.40;;
57593;SDS011;43423;46.510;6.686;2023-06-24T08:54:51;13.82;;;6.55;;
57593;SDS011;43423;46.510;6.686;2023-06-24T08:57:20;13.65;;;6.68;;
57593;SDS011;43423;46.510;6.686;2023-06-24T08:59:46;11.63;;;6.90;;
57593;SDS011;43423;46.510;6.686;2023-06-24T09:02:11;12.80;;;6.18;;
57593;SDS011;43423;46.510;6.686;2023-06-24T09:04:39;12.45;;;6.60;;
57593;SDS011;43423;46.510;6.686;2023-06-24T09:07:05;12.90;;;6.65;;
57593;SDS011;43423;46.510;6.686;2023-06-24T09:09:31;13.05;;;7.05;;
57593;SDS011;43423;46.510;6.686;2023-06-24T09:11:58;13.60;;;7.32;;
57593;SDS011;43423;46.510;6.686;2023-06-24T09:14:25;16.35;;;7.45;;
57593;SDS011;43423;46.510;6.686;2023-06-24T09:16:52;13.25;;;7.35;;
57593;SDS011;43423;46.510;6.686;2023-06-24T09:19:25;12.38;;;6.95;;
57593;SDS011;43423;46.510;6.686;2023-06-24T09:21:55;12.13;;;6.80;;
57593;SDS011;43423;46.510;6.686;2023-06-24T09:24:27;15.55;;;7.55;;
57593;SDS011;43423;46.510;6.686;2023-06-24T09:26:55;21.40;;;7.55;;
57593;SDS011;43423;46.510;6.686;2023-06-24T09:29:27;16.08;;;7.90;;
57593;SDS011;43423;46.510;6.686;2023-06-24T09:31:53;15.15;;;7.18;;
57593;SDS011;43423;46.510;6.686;2023-06-24T09:34:21;14.00;;;6.45;;
57593;SDS011;43423;46.510;6.686;2023-06-24T09:36:53;14.63;;;7.32;;
57593;SDS011;43423;46.510;6.686;2023-06-24T09:39:21;12.05;;;7.15;;
57593;SDS011;43423;46.510;6.686;2023-06-24T09:41:53;13.95;;;7.65;;
57593;SDS011;43423;46.510;6.686;2023-06-24T09:44:19;13.27;;;7.97;;
57593;SDS011;43423;46.510;6.686;2023-06-24T09:46:45;13.88;;;7.63;;
57593;SDS011;43423;46.510;6.686;2023-06-24T09:49:11;15.30;;;7.40;;
57593;SDS011;43423;46.510;6.686;2023-06-24T09:51:38;14.52;;;7.40;;
57593;SDS011;43423;46.510;6.686;2023-06-24T09:54:05;15.63;;;8.68;;
57593;SDS011;43423;46.510;6.686;2023-06-24T09:56:32;11.85;;;7.82;;
57593;SDS011;43423;46.510;6.686;2023-06-24T09:59:02;24.40;;;8.70;;
57593;SDS011;43423;46.510;6.686;2023-06-24T10:01:30;14.45;;;7.85;;
57593;SDS011;43423;46.510;6.686;2023-06-24T10:03:58;20.70;;;8.50;;
57593;SDS011;43423;46.510;6.686;2023-06-24T10:06:24;21.73;;;8.85;;
57593;SDS011;43423;46.510;6.686;2023-06-24T10:08:51;16.55;;;7.95;;
57593;SDS011;43423;46.510;6.686;2023-06-24T10:11:17;12.88;;;8.15;;
57593;SDS011;43423;46.510;6.686;2023-06-24T10:13:43;13.38;;;8.35;;
57593;SDS011;43423;46.510;6.686;2023-06-24T10:16:09;14.80;;;8.60;;
57593;SDS011;43423;46.510;6.686;2023-06-24T10:18:38;19.08;;;8.55;;
57593;SDS011;43423;46.510;6.686;2023-06-24T10:21:05;17.13;;;8.63;;
57593;SDS011;43423;46.510;6.686;2023-06-24T10:23:42;14.25;;;8.13;;
57593;SDS011;43423;46.510;6.686;2023-06-24T10:26:24;17.85;;;7.50;;
57593;SDS011;43423;46.510;6.686;2023-06-24T10:37:00;17.48;;;9.30;;
57593;SDS011;43423;46.510;6.686;2023-06-24T10:44:49;15.48;;;8.65;;
57593;SDS011;43423;46.510;6.686;2023-06-24T10:47:16;17.73;;;9.30;;
57593;SDS011;43423;46.510;6.686;2023-06-24T10:49:42;15.98;;;8.60;;
57593;SDS011;43423;46.510;6.686;2023-06-24T10:52:10;14.50;;;8.95;;
57593;SDS011;43423;46.510;6.686;2023-06-24T10:54:38;19.75;;;8.88;;
57593;SDS011;43423;46.510;6.686;2023-06-24T10:57:05;15.50;;;8.65;;
57593;SDS011;43423;46.510;6.686;2023-06-24T10:59:35;15.13;;;8.93;;
57593;SDS011;43423;46.510;6.686;2023-06-24T11:02:01;17.13;;;9.55;;
57593;SDS011;43423;46.510;6.686;2023-06-24T11:04:26;18.48;;;9.20;;
57593;SDS011;43423;46.510;6.686;2023-06-24T11:06:58;14.48;;;8.10;;
57593;SDS011;43423;46.510;6.686;2023-06-24T11:09:25;13.50;;;8.73;;
57593;SDS011;43423;46.510;6.686;2023-06-24T11:11:51;18.58;;;8.88;;
57593;SDS011;43423;46.510;6.686;2023-06-24T11:14:16;14.48;;;8.52;;
57593;SDS011;43423;46.510;6.686;2023-06-24T11:16:42;13.75;;;7.85;;
57593;SDS011;43423;46.510;6.686;2023-06-24T11:19:10;13.50;;;7.97;;
57593;SDS011;43423;46.510;6.686;2023-06-24T11:21:35;15.70;;;7.30;;
57593;SDS011;43423;46.510;6.686;2023-06-24T11:24:04;15.05;;;7.82;;
57593;SDS011;43423;46.510;6.686;2023-06-24T11:26:30;18.17;;;8.23;;
57593;SDS011;43423;46.510;6.686;2023-06-24T11:28:56;13.38;;;8.60;;
57593;SDS011;43423;46.510;6.686;2023-06-24T11:31:27;15.45;;;8.35;;
57593;SDS011;43423;46.510;6.686;2023-06-24T11:33:53;14.43;;;7.82;;
57593;SDS011;43423;46.510;6.686;2023-06-24T11:36:19;15.30;;;8.82;;
57593;SDS011;43423;46.510;6.686;2023-06-24T11:38:48;17.35;;;8.60;;
57593;SDS011;43423;46.510;6.686;2023-06-24T11:41:14;15.05;;;8.43;;
57593;SDS011;43423;46.510;6.686;2023-06-24T11:43:44;14.93;;;7.88;;
57593;SDS011;43423;46.510;6.686;2023-06-24T11:46:10;13.50;;;8.60;;
57593;SDS011;43423;46.510;6.686;2023-06-24T11:48:42;14.93;;;8.77;;
57593;SDS011;43423;46.510;6.686;2023-06-24T11:51:13;14.15;;;8.65;;
57593;SDS011;43423;46.510;6.686;2023-06-24T11:53:45;16.08;;;8.70;;
57593;SDS011;43423;46.510;6.686;2023-06-24T11:56:11;13.20;;;8.55;;
57593;SDS011;43423;46.510;6.686;2023-06-24T11:58:38;14.68;;;8.85;;
57593;SDS011;43423;46.510;6.686;2023-06-24T12:01:03;16.40;;;8.50;;
57593;SDS011;43423;46.510;6.686;2023-06-24T12:03:32;14.13;;;8.13;;
57593;SDS011;43423;46.510;6.686;2023-06-24T12:05:58;14.57;;;8.13;;
57593;SDS011;43423;46.510;6.686;2023-06-24T12:08:25;13.40;;;8.07;;
57593;SDS011;43423;46.510;6.686;2023-06-24T12:10:51;18.42;;;8.75;;
57593;SDS011;43423;46.510;6.686;2023-06-24T12:13:17;15.20;;;7.75;;
57593;SDS011;43423;46.510;6.686;2023-06-24T12:15:42;15.88;;;9.10;;
57593;SDS011;43423;46.510;6.686;2023-06-24T12:18:08;15.65;;;8.88;;
57593;SDS011;43423;46.510;6.686;2023-06-24T12:20:33;15.27;;;8.05;;
57593;SDS011;43423;46.510;6.686;2023-06-24T12:23:02;14.70;;;9.15;;
57593;SDS011;43423;46.510;6.686;2023-06-24T12:25:31;17.85;;;9.43;;
57593;SDS011;43423;46.510;6.686;2023-06-24T12:27:57;17.50;;;9.18;;
57593;SDS011;43423;46.510;6.686;2023-06-24T12:30:24;17.27;;;9.10;;
57593;SDS011;43423;46.510;6.686;2023-06-24T12:32:50;14.75;;;8.70;;
57593;SDS011;43423;46.510;6.686;2023-06-24T12:35:16;15.25;;;8.50;;
57593;SDS011;43423;46.510;6.686;2023-06-24T12:37:42;19.02;;;8.82;;
57593;SDS011;43423;46.510;6.686;2023-06-24T12:40:10;18.30;;;8.75;;
57593;SDS011;43423;46.510;6.686;2023-06-24T12:42:36;17.58;;;8.57;;
57593;SDS011;43423;46.510;6.686;2023-06-24T12:45:01;15.82;;;8.57;;
57593;SDS011;43423;46.510;6.686;2023-06-24T12:47:27;17.08;;;8.68;;
57593;SDS011;43423;46.510;6.686;2023-06-24T12:49:53;15.38;;;8.20;;
57593;SDS011;43423;46.510;6.686;2023-06-24T12:52:19;13.80;;;8.77;;
57593;SDS011;43423;46.510;6.686;2023-06-24T12:54:44;13.13;;;8.05;;
57593;SDS011;43423;46.510;6.686;2023-06-24T12:57:10;20.63;;;8.85;;
57593;SDS011;43423;46.510;6.686;2023-06-24T12:59:35;14.13;;;8.23;;
57593;SDS011;43423;46.510;6.686;2023-06-24T13:02:01;14.57;;;8.07;;
57593;SDS011;43423;46.510;6.686;2023-06-24T13:04:26;15.48;;;9.05;;
57593;SDS011;43423;46.510;6.686;2023-06-24T13:06:52;12.57;;;8.90;;
57593;SDS011;43423;46.510;6.686;2023-06-24T13:09:18;21.10;;;11.05;;
57593;SDS011;43423;46.510;6.686;2023-06-24T13:11:44;13.30;;;9.05;;
57593;SDS011;43423;46.510;6.686;2023-06-24T13:14:10;16.75;;;9.50;;
57593;SDS011;43423;46.510;6.686;2023-06-24T13:16:36;15.77;;;8.82;;
57593;SDS011;43423;46.510;6.686;2023-06-24T13:19:02;16.30;;;9.15;;
57593;SDS011;43423;46.510;6.686;2023-06-24T13:21:28;19.38;;;8.75;;
57593;SDS011;43423;46.510;6.686;2023-06-24T13:23:53;15.63;;;9.07;;
57593;SDS011;43423;46.510;6.686;2023-06-24T13:26:20;17.60;;;9.07;;
57593;SDS011;43423;46.510;6.686;2023-06-24T13:28:46;16.25;;;9.98;;
57593;SDS011;43423;46.510;6.686;2023-06-24T13:31:12;15.85;;;9.25;;
57593;SDS011;43423;46.510;6.686;2023-06-24T13:33:37;13.30;;;9.48;;
57593;SDS011;43423;46.510;6.686;2023-06-24T13:36:03;14.48;;;9.73;;
57593;SDS011;43423;46.510;6.686;2023-06-24T13:38:32;16.45;;;9.35;;
57593;SDS011;43423;46.510;6.686;2023-06-24T13:40:57;19.88;;;10.27;;
57593;SDS011;43423;46.510;6.686;2023-06-24T13:43:23;16.23;;;9.43;;
57593;SDS011;43423;46.510;6.686;2023-06-24T13:45:48;15.05;;;9.63;;
57593;SDS011;43423;46.510;6.686;2023-06-24T13:48:14;14.65;;;9.00;;
57593;SDS011;43423;46.510;6.686;2023-06-24T13:50:39;14.38;;;9.13;;
57593;SDS011;43423;46.510;6.686;2023-06-24T13:53:05;18.92;;;9.15;;
57593;SDS011;43423;46.510;6.686;2023-06-24T13:55:30;17.48;;;10.00;;
57593;SDS011;43423;46.510;6.686;2023-06-24T13:57:56;16.40;;;9.45;;
57593;SDS011;43423;46.510;6.686;2023-06-24T14:00:22;23.30;;;9.73;;
57593;SDS011;43423;46.510;6.686;2023-06-24T14:02:48;15.98;;;9.07;;
57593;SDS011;43423;46.510;6.686;2023-06-24T14:05:13;20.20;;;9.30;;
57593;SDS011;43423;46.510;6.686;2023-06-24T14:07:39;15.07;;;8.38;;
57593;SDS011;43423;46.510;6.686;2023-06-24T14:10:05;14.45;;;8.82;;
57593;SDS011;43423;46.510;6.686;2023-06-24T14:12:31;14.45;;;8.95;;
57593;SDS011;43423;46.510;6.686;2023-06-24T14:14:57;14.93;;;9.35;;
57593;SDS011;43423;46.510;6.686;2023-06-24T14:17:23;14.85;;;8.63;;
57593;SDS011;43423;46.510;6.686;2023-06-24T14:19:49;16.02;;;8.55;;
57593;SDS011;43423;46.510;6.686;2023-06-24T14:22:15;13.73;;;8.63;;
57593;SDS011;43423;46.510;6.686;2023-06-24T14:24:42;15.05;;;8.40;;
57593;SDS011;43423;46.510;6.686;2023-06-24T14:27:08;16.17;;;9.52;;
57593;SDS011;43423;46.510;6.686;2023-06-24T14:29:33;16.45;;;8.52;;
57593;SDS011;43423;46.510;6.686;2023-06-24T14:31:59;19.20;;;8.65;;
57593;SDS011;43423;46.510;6.686;2023-06-24T14:34:24;13.10;;;8.18;;
57593;SDS011;43423;46.510;6.686;2023-06-24T14:36:50;17.65;;;9.18;;
57593;SDS011;43423;46.510;6.686;2023-06-24T14:39:15;15.35;;;8.15;;
57593;SDS011;43423;46.510;6.686;2023-06-24T14:41:42;12.85;;;8.90;;
57593;SDS011;43423;46.510;6.686;2023-06-24T14:44:08;14.55;;;8.70;;
57593;SDS011;43423;46.510;6.686;2023-06-24T14:46:34;18.05;;;9.50;;
57593;SDS011;43423;46.510;6.686;2023-06-24T14:48:59;13.57;;;8.82;;
57593;SDS011;43423;46.510;6.686;2023-06-24T14:51:25;18.95;;;10.73;;
57593;SDS011;43423;46.510;6.686;2023-06-24T14:53:50;13.95;;;8.38;;
57593;SDS011;43423;46.510;6.686;2023-06-24T14:56:16;15.25;;;8.80;;
57593;SDS011;43423;46.510;6.686;2023-06-24T14:58:42;12.98;;;9.35;;
57593;SDS011;43423;46.510;6.686;2023-06-24T15:01:07;11.30;;;7.97;;
57593;SDS011;43423;46.510;6.686;2023-06-24T15:03:33;12.60;;;8.02;;
57593;SDS011;43423;46.510;6.686;2023-06-24T15:05:58;15.02;;;8.60;;